sensor_id;sensor_type;location;lat;lon;timestamp;pressure;altitude;pressure_sealevel;temperature;humidity
69153;BME280;56261;51.580;4.578;2023-03-05T00:01:12;102463.97;;;3.73;100.00
69153;BME280;56261;51.580;4.578;2023-03-05T00:03:38;102460.03;;;3.65;100.00
69153;BME280;56261;51.580;4.578;2023-03-05T00:06:03;102452.88;;;3.67;100.00
69153;BME280;56261;51.580;4.578;2023-03-05T00:08:29;102456.19;;;3.54;100.00
69153;BME280;56261;51.580;4.578;2023-03-05T00:11:00;102451.28;;;3.48;100.00
69153;BME280;56261;51.580;4.578;2023-03-05T00:13:25;102459.00;;;3.36;100.00
69153;BME280;56261;51.580;4.578;2023-03-05T00:15:51;102458.72;;;3.24;100.00
69153;BME280;56261;51.580;4.578;2023-03-05T00:18:16;102456.66;;;3.14;100.00
69153;BME280;56261;51.580;4.578;2023-03-05T00:20:42;102448.38;;;3.04;100.00
69153;BME280;56261;51.580;4.578;2023-03-05T00:23:07;102450.13;;;3.03;100.00
69153;BME280;56261;51.580;4.578;2023-03-05T00:25:36;102448.00;;;2.94;100.00
69153;BME280;56261;51.580;4.578;2023-03-05T00:28:02;102449.06;;;2.90;100.00
69153;BME280;56261;51.580;4.578;2023-03-05T00:30:28;102453.50;;;2.89;100.00
69153;BME280;56261;51.580;4.578;2023-03-05T00:32:53;102452.50;;;2.92;100.00
69153;BME280;56261;51.580;4.578;2023-03-05T00:35:19;102451.56;;;2.93;100.00
69153;BME280;56261;51.580;4.578;2023-03-05T00:37:44;102454.75;;;3.00;100.00
69153;BME280;56261;51.580;4.578;2023-03-05T00:40:10;102450.31;;;3.00;100.00
69153;BME280;56261;51.580;4.578;2023-03-05T00:42:36;102445.50;;;3.08;100.00
69153;BME280;56261;51.580;4.578;2023-03-05T00:45:06;102445.88;;;3.01;100.00
69153;BME280;56261;51.580;4.578;2023-03-05T00:47:32;102436.47;;;3.12;100.00
69153;BME280;56261;51.580;4.578;2023-03-05T00:49:57;102433.63;;;3.17;100.00
69153;BME280;56261;51.580;4.578;2023-03-05T00:52:23;102437.50;;;3.10;100.00
69153;BME280;56261;51.580;4.578;2023-03-05T00:54:49;102427.63;;;2.98;100.00
69153;BME280;56261;51.580;4.578;2023-03-05T00:57:14;102435.00;;;2.91;100.00
69153;BME280;56261;51.580;4.578;2023-03-05T00:59:40;102429.97;;;2.86;100.00
69153;BME280;56261;51.580;4.578;2023-03-05T01:02:05;102417.03;;;2.82;100.00
69153;BME280;56261;51.580;4.578;2023-03-05T01:04:31;102416.31;;;2.78;100.00
69153;BME280;56261;51.580;4.578;2023-03-05T01:06:56;102422.06;;;2.69;100.00
69153;BME280;56261;51.580;4.578;2023-03-05T01:09:22;102410.00;;;2.65;100.00
69153;BME280;56261;51.580;4.578;2023-03-05T01:11:50;102409.22;;;2.63;100.00
69153;BME280;56261;51.580;4.578;2023-03-05T01:14:15;102404.03;;;2.61;100.00
69153;BME280;56261;51.580;4.578;2023-03-05T01:16:41;102399.31;;;2.51;100.00
69153;BME280;56261;51.580;4.578;2023-03-05T01:19:06;102391.38;;;2.35;100.00
69153;BME280;56261;51.580;4.578;2023-03-05T01:21:33;102400.78;;;2.39;100.00
69153;BME280;56261;51.580;4.578;2023-03-05T01:23:59;102398.63;;;2.29;100.00
69153;BME280;56261;51.580;4.578;2023-03-05T01:26:25;102392.13;;;2.19;100.00
69153;BME280;56261;51.580;4.578;2023-03-05T01:28:50;102395.00;;;2.15;100.00
69153;BME280;56261;51.580;4.578;2023-03-05T01:31:15;102395.59;;;2.20;100.00
69153;BME280;56261;51.580;4.578;2023-03-05T01:33:41;102387.72;;;2.20;100.00
69153;BME280;56261;51.580;4.578;2023-03-05T01:36:11;102377.91;;;2.23;100.00
69153;BME280;56261;51.580;4.578;2023-03-05T01:38:39;102387.00;;;2.34;100.00
69153;BME280;56261;51.580;4.578;2023-03-05T01:41:05;102385.31;;;2.33;100.00
69153;BME280;56261;51.580;4.578;2023-03-05T01:43:31;102366.97;;;2.31;100.00
69153;BME280;56261;51.580;4.578;2023-03-05T01:48:44;102353.81;;;2.31;100.00
69153;BME280;56261;51.580;4.578;2023-03-05T01:51:12;102364.03;;;2.37;100.00
69153;BME280;56261;51.580;4.578;2023-03-05T01:53:37;102358.22;;;2.48;100.00
69153;BME280;56261;51.580;4.578;2023-03-05T01:56:04;102341.72;;;2.44;100.00
69153;BME280;56261;51.580;4.578;2023-03-05T01:58:29;102345.72;;;2.52;100.00
69153;BME280;56261;51.580;4.578;2023-03-05T02:00:55;102338.03;;;2.64;100.00
69153;BME280;56261;51.580;4.578;2023-03-05T02:03:22;102333.59;;;2.65;100.00
69153;BME280;56261;51.580;4.578;2023-03-05T02:05:47;102330.81;;;2.68;100.00
69153;BME280;56261;51.580;4.578;2023-03-05T02:08:16;102333.03;;;2.76;100.00
69153;BME280;56261;51.580;4.578;2023-03-05T02:10:45;102318.00;;;2.78;100.00
69153;BME280;56261;51.580;4.578;2023-03-05T02:13:18;102311.66;;;2.82;100.00
69153;BME280;56261;51.580;4.578;2023-03-05T02:15:45;102319.69;;;2.79;100.00
69153;BME280;56261;51.580;4.578;2023-03-05T02:18:12;102311.66;;;2.82;100.00
69153;BME280;56261;51.580;4.578;2023-03-05T02:20:48;102313.66;;;2.77;100.00
69153;BME280;56261;51.580;4.578;2023-03-05T02:23:14;102311.88;;;2.77;100.00
69153;BME280;56261;51.580;4.578;2023-03-05T02:25:40;102310.63;;;2.84;100.00
69153;BME280;56261;51.580;4.578;2023-03-05T02:30:35;102298.03;;;2.89;100.00
69153;BME280;56261;51.580;4.578;2023-03-05T02:33:02;102293.88;;;2.85;100.00
69153;BME280;56261;51.580;4.578;2023-03-05T02:35:27;102292.56;;;2.77;100.00
69153;BME280;56261;51.580;4.578;2023-03-05T02:37:52;102293.03;;;2.85;100.00
69153;BME280;56261;51.580;4.578;2023-03-05T02:40:18;102292.75;;;2.89;100.00
69153;BME280;56261;51.580;4.578;2023-03-05T02:42:43;102284.19;;;2.86;100.00
69153;BME280;56261;51.580;4.578;2023-03-05T02:45:10;102276.38;;;2.84;100.00
69153;BME280;56261;51.580;4.578;2023-03-05T02:47:35;102268.22;;;2.89;100.00
69153;BME280;56261;51.580;4.578;2023-03-05T02:50:01;102262.94;;;2.89;100.00
69153;BME280;56261;51.580;4.578;2023-03-05T02:52:28;102270.41;;;2.97;100.00
69153;BME280;56261;51.580;4.578;2023-03-05T02:54:54;102267.69;;;2.98;100.00
69153;BME280;56261;51.580;4.578;2023-03-05T02:57:19;102265.00;;;3.00;100.00
69153;BME280;56261;51.580;4.578;2023-03-05T02:59:45;102274.50;;;3.02;100.00
69153;BME280;56261;51.580;4.578;2023-03-05T03:02:11;102265.66;;;3.03;100.00
69153;BME280;56261;51.580;4.578;2023-03-05T03:04:36;102267.28;;;3.06;100.00
69153;BME280;56261;51.580;4.578;2023-03-05T03:07:02;102263.69;;;3.07;100.00
69153;BME280;56261;51.580;4.578;2023-03-05T03:09:27;102247.31;;;3.02;100.00
69153;BME280;56261;51.580;4.578;2023-03-05T03:11:52;102252.31;;;3.06;100.00
69153;BME280;56261;51.580;4.578;2023-03-05T03:14:18;102248.41;;;3.14;100.00
69153;BME280;56261;51.580;4.578;2023-03-05T03:16:44;102242.94;;;3.17;100.00
69153;BME280;56261;51.580;4.578;2023-03-05T03:19:09;102251.34;;;3.23;100.00
69153;BME280;56261;51.580;4.578;2023-03-05T03:21:35;102242.94;;;3.17;100.00
69153;BME280;56261;51.580;4.578;2023-03-05T03:24:00;102241.25;;;3.16;100.00
69153;BME280;56261;51.580;4.578;2023-03-05T03:26:26;102245.00;;;3.11;100.00
69153;BME280;56261;51.580;4.578;2023-03-05T03:28:51;102236.81;;;3.16;100.00
69153;BME280;56261;51.580;4.578;2023-03-05T03:31:16;102234.75;;;3.21;100.00
69153;BME280;56261;51.580;4.578;2023-03-05T03:33:42;102230.94;;;3.27;100.00
69153;BME280;56261;51.580;4.578;2023-03-05T03:36:08;102233.50;;;3.28;100.00
69153;BME280;56261;51.580;4.578;2023-03-05T03:38:33;102224.38;;;3.34;100.00
69153;BME280;56261;51.580;4.578;2023-03-05T03:40:59;102220.13;;;3.31;100.00
69153;BME280;56261;51.580;4.578;2023-03-05T03:43:24;102219.44;;;3.28;100.00
69153;BME280;56261;51.580;4.578;2023-03-05T03:45:49;102219.09;;;3.34;100.00
69153;BME280;56261;51.580;4.578;2023-03-05T03:48:15;102216.53;;;3.32;100.00
69153;BME280;56261;51.580;4.578;2023-03-05T03:50:41;102212.56;;;3.25;100.00
69153;BME280;56261;51.580;4.578;2023-03-05T03:53:07;102206.00;;;3.32;100.00
69153;BME280;56261;51.580;4.578;2023-03-05T03:55:33;102202.34;;;3.35;100.00
69153;BME280;56261;51.580;4.578;2023-03-05T03:57:59;102202.16;;;3.38;100.00
69153;BME280;56261;51.580;4.578;2023-03-05T04:00:24;102201.41;;;3.36;100.00
69153;BME280;56261;51.580;4.578;2023-03-05T04:02:49;102199.44;;;3.40;100.00
69153;BME280;56261;51.580;4.578;2023-03-05T04:05:15;102195.50;;;3.47;100.00
69153;BME280;56261;51.580;4.578;2023-03-05T04:07:40;102199.53;;;3.38;100.00
69153;BME280;56261;51.580;4.578;2023-03-05T04:10:06;102203.50;;;3.45;100.00
69153;BME280;56261;51.580;4.578;2023-03-05T04:12:32;102202.19;;;3.52;100.00
69153;BME280;56261;51.580;4.578;2023-03-05T04:14:57;102202.03;;;3.56;100.00
69153;BME280;56261;51.580;4.578;2023-03-05T04:17:25;102196.34;;;3.47;100.00
69153;BME280;56261;51.580;4.578;2023-03-05T04:19:51;102195.44;;;3.48;100.00
69153;BME280;56261;51.580;4.578;2023-03-05T04:22:16;102178.56;;;3.51;100.00
69153;BME280;56261;51.580;4.578;2023-03-05T04:24:42;102172.22;;;3.39;100.00
69153;BME280;56261;51.580;4.578;2023-03-05T04:27:08;102170.16;;;3.44;100.00
69153;BME280;56261;51.580;4.578;2023-03-05T04:29:34;102170.44;;;3.40;100.00
69153;BME280;56261;51.580;4.578;2023-03-05T04:32:00;102163.84;;;3.47;100.00
69153;BME280;56261;51.580;4.578;2023-03-05T04:34:28;102164.13;;;3.42;100.00
69153;BME280;56261;51.580;4.578;2023-03-05T04:36:54;102164.78;;;3.46;100.00
69153;BME280;56261;51.580;4.578;2023-03-05T04:39:19;102156.50;;;3.38;100.00
69153;BME280;56261;51.580;4.578;2023-03-05T04:41:46;102159.13;;;3.38;100.00
69153;BME280;56261;51.580;4.578;2023-03-05T04:44:12;102158.53;;;3.32;100.00
69153;BME280;56261;51.580;4.578;2023-03-05T04:46:37;102158.22;;;3.23;100.00
69153;BME280;56261;51.580;4.578;2023-03-05T04:49:03;102159.53;;;3.16;100.00
69153;BME280;56261;51.580;4.578;2023-03-05T04:51:28;102164.22;;;3.10;100.00
69153;BME280;56261;51.580;4.578;2023-03-05T04:53:54;102154.59;;;3.09;100.00
69153;BME280;56261;51.580;4.578;2023-03-05T04:56:19;102148.19;;;2.99;100.00
69153;BME280;56261;51.580;4.578;2023-03-05T04:58:45;102140.97;;;2.87;100.00
69153;BME280;56261;51.580;4.578;2023-03-05T05:01:10;102147.50;;;2.96;100.00
69153;BME280;56261;51.580;4.578;2023-03-05T05:03:35;102140.91;;;2.88;100.00
69153;BME280;56261;51.580;4.578;2023-03-05T05:06:01;102140.28;;;2.83;100.00
69153;BME280;56261;51.580;4.578;2023-03-05T05:08:27;102132.38;;;2.83;100.00
69153;BME280;56261;51.580;4.578;2023-03-05T05:11:01;102132.00;;;2.75;100.00
69153;BME280;56261;51.580;4.578;2023-03-05T05:13:28;102139.78;;;2.77;100.00
69153;BME280;56261;51.580;4.578;2023-03-05T05:15:54;102137.34;;;2.74;100.00
69153;BME280;56261;51.580;4.578;2023-03-05T05:18:20;102134.75;;;2.88;100.00
69153;BME280;56261;51.580;4.578;2023-03-05T05:20:46;102128.06;;;2.82;100.00
69153;BME280;56261;51.580;4.578;2023-03-05T05:23:12;102128.50;;;2.75;100.00
69153;BME280;56261;51.580;4.578;2023-03-05T05:25:37;102128.50;;;2.75;100.00
69153;BME280;56261;51.580;4.578;2023-03-05T05:28:03;102128.59;;;2.73;100.00
69153;BME280;56261;51.580;4.578;2023-03-05T05:30:28;102125.69;;;2.78;100.00
69153;BME280;56261;51.580;4.578;2023-03-05T05:32:53;102122.03;;;2.80;100.00
69153;BME280;56261;51.580;4.578;2023-03-05T05:35:19;102122.09;;;2.79;100.00
69153;BME280;56261;51.580;4.578;2023-03-05T05:37:44;102110.16;;;2.73;100.00
69153;BME280;56261;51.580;4.578;2023-03-05T05:40:10;102106.66;;;2.73;100.00
69153;BME280;56261;51.580;4.578;2023-03-05T05:42:36;102111.19;;;2.70;100.00
69153;BME280;56261;51.580;4.578;2023-03-05T05:45:01;102104.16;;;2.85;100.00
69153;BME280;56261;51.580;4.578;2023-03-05T05:47:27;102107.06;;;2.81;100.00
69153;BME280;56261;51.580;4.578;2023-03-05T05:49:54;102105.94;;;2.85;100.00
69153;BME280;56261;51.580;4.578;2023-03-05T05:52:20;102119.53;;;2.93;100.00
69153;BME280;56261;51.580;4.578;2023-03-05T05:54:45;102133.91;;;2.87;100.00
69153;BME280;56261;51.580;4.578;2023-03-05T05:57:10;102131.28;;;2.87;100.00
69153;BME280;56261;51.580;4.578;2023-03-05T05:59:36;102118.94;;;3.04;100.00
69153;BME280;56261;51.580;4.578;2023-03-05T06:02:02;102115.06;;;3.09;100.00
69153;BME280;56261;51.580;4.578;2023-03-05T06:04:28;102106.97;;;3.12;100.00
69153;BME280;56261;51.580;4.578;2023-03-05T06:06:53;102100.28;;;3.07;100.00
69153;BME280;56261;51.580;4.578;2023-03-05T06:09:19;102107.09;;;3.11;100.00
69153;BME280;56261;51.580;4.578;2023-03-05T06:11:45;102101.97;;;3.08;100.00
69153;BME280;56261;51.580;4.578;2023-03-05T06:14:11;102101.69;;;3.12;100.00
69153;BME280;56261;51.580;4.578;2023-03-05T06:16:37;102096.63;;;3.09;100.00
69153;BME280;56261;51.580;4.578;2023-03-05T06:19:03;102100.38;;;3.05;100.00
69153;BME280;56261;51.580;4.578;2023-03-05T06:21:29;102101.69;;;3.12;100.00
69153;BME280;56261;51.580;4.578;2023-03-05T06:23:55;102098.78;;;3.03;100.00
69153;BME280;56261;51.580;4.578;2023-03-05T06:26:23;102110.69;;;2.94;100.00
69153;BME280;56261;51.580;4.578;2023-03-05T06:28:48;102094.31;;;2.89;100.00
69153;BME280;56261;51.580;4.578;2023-03-05T06:31:17;102098.53;;;2.91;100.00
69153;BME280;56261;51.580;4.578;2023-03-05T06:33:43;102095.88;;;2.77;100.00
69153;BME280;56261;51.580;4.578;2023-03-05T06:36:11;102091.44;;;2.78;100.00
69153;BME280;56261;51.580;4.578;2023-03-05T06:38:38;102088.72;;;2.79;100.00
69153;BME280;56261;51.580;4.578;2023-03-05T06:41:06;102093.38;;;2.74;100.00
69153;BME280;56261;51.580;4.578;2023-03-05T06:43:34;102082.97;;;2.57;100.00
69153;BME280;56261;51.580;4.578;2023-03-05T06:46:12;102096.78;;;2.76;100.00
69153;BME280;56261;51.580;4.578;2023-03-05T06:48:38;102087.72;;;2.66;100.00
69153;BME280;56261;51.580;4.578;2023-03-05T06:51:04;102090.09;;;2.70;100.00
69153;BME280;56261;51.580;4.578;2023-03-05T06:53:30;102091.03;;;2.69;100.00
69153;BME280;56261;51.580;4.578;2023-03-05T06:55:56;102091.53;;;2.76;100.00
69153;BME280;56261;51.580;4.578;2023-03-05T06:58:21;102087.00;;;2.78;100.00
69153;BME280;56261;51.580;4.578;2023-03-05T07:00:47;102088.13;;;2.74;100.00
69153;BME280;56261;51.580;4.578;2023-03-05T07:03:13;102091.03;;;2.69;100.00
69153;BME280;56261;51.580;4.578;2023-03-05T07:05:40;102083.97;;;2.70;100.00
69153;BME280;56261;51.580;4.578;2023-03-05T07:08:06;102079.66;;;2.69;100.00
69153;BME280;56261;51.580;4.578;2023-03-05T07:10:39;102086.25;;;2.76;100.00
69153;BME280;56261;51.580;4.578;2023-03-05T07:13:06;102091.47;;;2.92;100.00
69153;BME280;56261;51.580;4.578;2023-03-05T07:15:32;102076.16;;;2.99;100.00
69153;BME280;56261;51.580;4.578;2023-03-05T07:17:57;102071.56;;;3.02;100.00
69153;BME280;56261;51.580;4.578;2023-03-05T07:20:26;102085.66;;;3.01;100.00
69153;BME280;56261;51.580;4.578;2023-03-05T07:22:51;102084.00;;;3.00;100.00
69153;BME280;56261;51.580;4.578;2023-03-05T07:25:16;102074.41;;;3.14;100.00
69153;BME280;56261;51.580;4.578;2023-03-05T07:27:46;102068.50;;;3.24;100.00
69153;BME280;56261;51.580;4.578;2023-03-05T07:30:12;102061.84;;;3.47;100.00
69153;BME280;56261;51.580;4.578;2023-03-05T07:32:37;102069.19;;;3.42;100.00
69153;BME280;56261;51.580;4.578;2023-03-05T07:35:03;102059.78;;;3.67;100.00
69153;BME280;56261;51.580;4.578;2023-03-05T07:37:28;102063.34;;;3.66;100.00
69153;BME280;56261;51.580;4.578;2023-03-05T07:39:54;102063.19;;;3.69;100.00
69153;BME280;56261;51.580;4.578;2023-03-05T07:42:19;102061.75;;;3.78;100.00
69153;BME280;56261;51.580;4.578;2023-03-05T07:44:46;102062.69;;;3.91;100.00
69153;BME280;56261;51.580;4.578;2023-03-05T07:47:12;102059.31;;;3.74;100.00
69153;BME280;56261;51.580;4.578;2023-03-05T07:49:38;102062.06;;;3.73;100.00
69153;BME280;56261;51.580;4.578;2023-03-05T07:52:06;102049.09;;;3.97;100.00
69153;BME280;56261;51.580;4.578;2023-03-05T07:54:31;102058.69;;;4.12;100.00
69153;BME280;56261;51.580;4.578;2023-03-05T07:57:02;102053.91;;;4.05;100.00
69153;BME280;56261;51.580;4.578;2023-03-05T07:59:27;102061.31;;;4.12;100.00
69153;BME280;56261;51.580;4.578;2023-03-05T08:01:53;102070.28;;;4.10;100.00
69153;BME280;56261;51.580;4.578;2023-03-05T08:04:18;102054.81;;;4.18;100.00
69153;BME280;56261;51.580;4.578;2023-03-05T08:06:43;102060.09;;;4.04;100.00
69153;BME280;56261;51.580;4.578;2023-03-05T08:09:11;102056.88;;;4.13;100.00
69153;BME280;56261;51.580;4.578;2023-03-05T08:11:36;102045.09;;;4.19;100.00
69153;BME280;56261;51.580;4.578;2023-03-05T08:14:01;102050.53;;;4.30;100.00
69153;BME280;56261;51.580;4.578;2023-03-05T08:16:28;102035.97;;;4.37;100.00
69153;BME280;56261;51.580;4.578;2023-03-05T08:18:55;102031.34;;;4.68;100.00
69153;BME280;56261;51.580;4.578;2023-03-05T08:21:27;102023.94;;;4.73;100.00
69153;BME280;56261;51.580;4.578;2023-03-05T08:23:58;102036.53;;;4.82;100.00
69153;BME280;56261;51.580;4.578;2023-03-05T08:26:25;102033.78;;;4.84;100.00
69153;BME280;56261;51.580;4.578;2023-03-05T08:28:51;102025.03;;;4.83;100.00
69153;BME280;56261;51.580;4.578;2023-03-05T08:31:19;102026.63;;;4.86;100.00
69153;BME280;56261;51.580;4.578;2023-03-05T08:33:46;102015.69;;;4.77;100.00
69153;BME280;56261;51.580;4.578;2023-03-05T08:36:11;102022.28;;;4.97;100.00
69153;BME280;56261;51.580;4.578;2023-03-05T08:38:37;102020.81;;;5.06;100.00
69153;BME280;56261;51.580;4.578;2023-03-05T08:41:03;102015.50;;;5.70;100.00
69153;BME280;56261;51.580;4.578;2023-03-05T08:43:30;102011.09;;;6.08;100.00
69153;BME280;56261;51.580;4.578;2023-03-05T08:45:56;102009.22;;;5.84;100.00
69153;BME280;56261;51.580;4.578;2023-03-05T08:48:21;102011.88;;;5.71;100.00
69153;BME280;56261;51.580;4.578;2023-03-05T08:50:46;102006.91;;;5.79;100.00
69153;BME280;56261;51.580;4.578;2023-03-05T08:53:13;102001.56;;;6.05;100.00
69153;BME280;56261;51.580;4.578;2023-03-05T08:55:38;102007.47;;;6.09;100.00
69153;BME280;56261;51.580;4.578;2023-03-05T08:58:04;101996.41;;;6.28;100.00
69153;BME280;56261;51.580;4.578;2023-03-05T09:00:29;101992.66;;;6.06;100.00
69153;BME280;56261;51.580;4.578;2023-03-05T09:02:54;102000.53;;;5.95;100.00
69153;BME280;56261;51.580;4.578;2023-03-05T09:05:20;102001.91;;;5.88;100.00
69153;BME280;56261;51.580;4.578;2023-03-05T09:07:45;102006.00;;;6.05;100.00
69153;BME280;56261;51.580;4.578;2023-03-05T09:10:11;101996.94;;;6.20;100.00
69153;BME280;56261;51.580;4.578;2023-03-05T09:12:41;101993.44;;;5.82;100.00
69153;BME280;56261;51.580;4.578;2023-03-05T09:15:07;101998.69;;;5.58;100.00
69153;BME280;56261;51.580;4.578;2023-03-05T09:17:37;101989.13;;;5.69;100.00
69153;BME280;56261;51.580;4.578;2023-03-05T09:20:04;101989.28;;;5.41;100.00
69153;BME280;56261;51.580;4.578;2023-03-05T09:22:30;101988.03;;;5.47;100.00
69153;BME280;56261;51.580;4.578;2023-03-05T09:24:56;101991.63;;;5.33;100.00
69153;BME280;56261;51.580;4.578;2023-03-05T09:27:21;101999.44;;;4.84;100.00
69153;BME280;56261;51.580;4.578;2023-03-05T09:29:47;101993.38;;;4.56;100.00
69153;BME280;56261;51.580;4.578;2023-03-05T09:32:12;101993.38;;;4.56;100.00
69153;BME280;56261;51.580;4.578;2023-03-05T09:34:38;101992.53;;;4.68;100.00
69153;BME280;56261;51.580;4.578;2023-03-05T09:37:03;101989.19;;;4.79;100.00
69153;BME280;56261;51.580;4.578;2023-03-05T09:39:29;101982.81;;;4.69;100.00
69153;BME280;56261;51.580;4.578;2023-03-05T09:44:39;101986.84;;;5.00;100.00
69153;BME280;56261;51.580;4.578;2023-03-05T09:49:58;101968.50;;;5.11;100.00
69153;BME280;56261;51.580;4.578;2023-03-05T09:52:45;101971.00;;;5.26;100.00
69153;BME280;56261;51.580;4.578;2023-03-05T09:55:37;101975.53;;;5.36;100.00
69153;BME280;56261;51.580;4.578;2023-03-05T09:58:12;101969.31;;;5.12;100.00
69153;BME280;56261;51.580;4.578;2023-03-05T10:00:50;101963.97;;;5.50;100.00
69153;BME280;56261;51.580;4.578;2023-03-05T10:03:24;101961.34;;;5.50;100.00
69153;BME280;56261;51.580;4.578;2023-03-05T10:08:31;101952.84;;;6.08;100.00
69153;BME280;56261;51.580;4.578;2023-03-05T10:11:01;101957.56;;;6.51;100.00
69153;BME280;56261;51.580;4.578;2023-03-05T10:13:37;101961.75;;;6.42;100.00
69153;BME280;56261;51.580;4.578;2023-03-05T10:22:03;101957.78;;;6.12;100.00
69153;BME280;56261;51.580;4.578;2023-03-05T10:27:51;101946.63;;;6.20;100.00
69153;BME280;56261;51.580;4.578;2023-03-05T10:30:30;101942.50;;;6.16;100.00
69153;BME280;56261;51.580;4.578;2023-03-05T10:40:53;101930.47;;;6.12;100.00
69153;BME280;56261;51.580;4.578;2023-03-05T10:46:14;101919.06;;;6.69;100.00
69153;BME280;56261;51.580;4.578;2023-03-05T10:48:54;101906.78;;;6.68;100.00
69153;BME280;56261;51.580;4.578;2023-03-05T10:54:31;101901.25;;;7.05;100.00
69153;BME280;56261;51.580;4.578;2023-03-05T10:59:45;101906.03;;;6.55;100.00
69153;BME280;56261;51.580;4.578;2023-03-05T11:02:12;101894.19;;;6.36;100.00
69153;BME280;56261;51.580;4.578;2023-03-05T11:04:38;101893.22;;;6.37;100.00
69153;BME280;56261;51.580;4.578;2023-03-05T11:07:28;101895.06;;;6.59;100.00
69153;BME280;56261;51.580;4.578;2023-03-05T11:12:33;101883.84;;;6.56;100.00
69153;BME280;56261;51.580;4.578;2023-03-05T11:18:16;101881.09;;;6.69;100.00
69153;BME280;56261;51.580;4.578;2023-03-05T11:20:42;101871.44;;;6.56;100.00
69153;BME280;56261;51.580;4.578;2023-03-05T11:25:54;101873.19;;;5.98;100.00
69153;BME280;56261;51.580;4.578;2023-03-05T11:28:31;101875.44;;;5.91;100.00
69153;BME280;56261;51.580;4.578;2023-03-05T11:33:29;101878.06;;;5.43;100.00
69153;BME280;56261;51.580;4.578;2023-03-05T11:44:13;101863.44;;;5.50;100.00
69153;BME280;56261;51.580;4.578;2023-03-05T11:46:49;101863.00;;;5.56;100.00
69153;BME280;56261;51.580;4.578;2023-03-05T11:49:22;101858.03;;;5.52;100.00
69153;BME280;56261;51.580;4.578;2023-03-05T11:57:15;101852.88;;;5.74;100.00
69153;BME280;56261;51.580;4.578;2023-03-05T11:59:42;101844.94;;;5.74;100.00
69153;BME280;56261;51.580;4.578;2023-03-05T12:02:18;101837.94;;;5.97;100.00
69153;BME280;56261;51.580;4.578;2023-03-05T12:04:44;101835.41;;;5.72;100.00
69153;BME280;56261;51.580;4.578;2023-03-05T12:07:14;101835.81;;;5.54;100.00
69153;BME280;56261;51.580;4.578;2023-03-05T12:14:47;101824.97;;;5.57;100.00
69153;BME280;56261;51.580;4.578;2023-03-05T12:17:30;101822.13;;;5.60;100.00
69153;BME280;56261;51.580;4.578;2023-03-05T12:22:41;101803.91;;;5.56;100.00
69153;BME280;56261;51.580;4.578;2023-03-05T12:25:27;101794.50;;;5.76;100.00
69153;BME280;56261;51.580;4.578;2023-03-05T12:27:56;101792.88;;;5.86;100.00
69153;BME280;56261;51.580;4.578;2023-03-05T12:33:03;101776.34;;;6.07;100.00
69153;BME280;56261;51.580;4.578;2023-03-05T12:35:34;101780.47;;;5.87;100.00
69153;BME280;56261;51.580;4.578;2023-03-05T12:38:27;101770.59;;;6.24;100.00
69153;BME280;56261;51.580;4.578;2023-03-05T12:40:48;101765.66;;;6.19;100.00
69153;BME280;56261;51.580;4.578;2023-03-05T12:43:39;101757.38;;;6.47;100.00
69153;BME280;56261;51.580;4.578;2023-03-05T12:46:25;101749.31;;;6.37;100.00
69153;BME280;56261;51.580;4.578;2023-03-05T12:48:53;101745.81;;;6.36;100.00
69153;BME280;56261;51.580;4.578;2023-03-05T12:51:33;101742.06;;;6.16;100.00
69153;BME280;56261;51.580;4.578;2023-03-05T12:56:55;101737.00;;;6.24;100.00
69153;BME280;56261;51.580;4.578;2023-03-05T12:59:27;101730.72;;;6.03;100.00
69153;BME280;56261;51.580;4.578;2023-03-05T13:02:02;101726.66;;;6.21;100.00
69153;BME280;56261;51.580;4.578;2023-03-05T13:04:35;101717.63;;;6.47;100.00
69153;BME280;56261;51.580;4.578;2023-03-05T13:07:13;101724.13;;;6.42;100.00
69153;BME280;56261;51.580;4.578;2023-03-05T13:09:39;101710.63;;;6.57;100.00
69153;BME280;56261;51.580;4.578;2023-03-05T13:12:11;101704.59;;;6.55;100.00
69153;BME280;56261;51.580;4.578;2023-03-05T13:17:28;101702.91;;;6.31;100.00
69153;BME280;56261;51.580;4.578;2023-03-05T13:19:55;101703.50;;;6.69;100.00
69153;BME280;56261;51.580;4.578;2023-03-05T13:22:21;101693.00;;;6.67;100.00
69153;BME280;56261;51.580;4.578;2023-03-05T13:25:12;101689.13;;;6.82;100.00
69153;BME280;56261;51.580;4.578;2023-03-05T13:27:38;101684.13;;;6.57;100.00
69153;BME280;56261;51.580;4.578;2023-03-05T13:30:04;101688.56;;;6.68;100.00
69153;BME280;56261;51.580;4.578;2023-03-05T13:32:31;101677.81;;;6.69;100.00
69153;BME280;56261;51.580;4.578;2023-03-05T13:34:59;101685.38;;;6.85;100.00
69153;BME280;56261;51.580;4.578;2023-03-05T13:37:26;101678.75;;;6.91;100.00
69153;BME280;56261;51.580;4.578;2023-03-05T13:39:58;101671.97;;;6.98;100.00
69153;BME280;56261;51.580;4.578;2023-03-05T13:42:26;101660.31;;;6.89;100.00
69153;BME280;56261;51.580;4.578;2023-03-05T13:44:56;101653.41;;;6.98;100.00
69153;BME280;56261;51.580;4.578;2023-03-05T13:47:25;101641.03;;;6.87;100.00
69153;BME280;56261;51.580;4.578;2023-03-05T13:50:03;101643.66;;;6.87;100.00
69153;BME280;56261;51.580;4.578;2023-03-05T13:52:35;101641.13;;;6.97;100.00
69153;BME280;56261;51.580;4.578;2023-03-05T13:55:04;101645.13;;;6.91;100.00
69153;BME280;56261;51.580;4.578;2023-03-05T13:57:39;101630.91;;;6.92;100.00
69153;BME280;56261;51.580;4.578;2023-03-05T14:00:23;101639.44;;;6.96;100.00
69153;BME280;56261;51.580;4.578;2023-03-05T14:02:49;101627.47;;;6.69;100.00
69153;BME280;56261;51.580;4.578;2023-03-05T14:05:15;101635.91;;;7.06;100.00
69153;BME280;56261;51.580;4.578;2023-03-05T14:07:41;101629.53;;;6.98;100.00
69153;BME280;56261;51.580;4.578;2023-03-05T14:10:39;101629.16;;;7.02;100.00
69153;BME280;56261;51.580;4.578;2023-03-05T14:13:21;101627.88;;;6.97;100.00